Cincinnati (CVG/KCVG)

Map

Destinations

Information

Location
Cincinnati, KY
Local Time
18:40 / 6:40 pm
GMT Time
22:40 / 10:40 pm
Gates
No FAA reported delays
METAR KCVG 242152Z 35010KT 10SM SCT045 BKN055 BKN250 28/19 A2996 RMK AO2 SLP134 T02830194
TAF KCVG 242114Z 2421/2524 32010KT P6SM SCT050 FM242300 35005KT P6SM SCT050 FM250200 02005KT P6SM FEW250 FM251400 06005KT P6SM FEW250